Погода Стшембошевицена 2 недели

Лодзинское воеводство, Польша

24 мая-06 июня
  • 24мая
    Сегодня
    +13°
    +26°
    Практически безоблачно
    ВремяПогодаТемператураВлажностьДавлениеВетер, м/сВероятность осадков
    02:00Пасмурно, ливень+15°C94 %745 мм0.7 м/с45 %
    05:00Практически безоблачно+14°C98 %746 мм1.2 м/с28 %
    08:00Ясно и безоблачно+18°C85 %746 мм0.1 м/с4 %
    11:00Практически безоблачно+22°C62 %747 мм2.0 м/с2 %
    14:00Практически безоблачно+24°C55 %746 мм2.9 м/с7 %
    17:00Практически безоблачно+25°C41 %745 мм5.3 м/с12 %
    20:00Ясно и безоблачно+20°C69 %745 мм2.8 м/с16 %
    23:00Ясно и безоблачно+16°C83 %746 мм2.1 м/с1 %
  • 25мая
    Суббота
    +12°
    +26°
    Облачно с прояснениями
    ВремяПогодаТемператураВлажностьДавлениеВетер, м/сВероятность осадков
    02:00Ясно и безоблачно+15°C90 %746 мм2.6 м/с2 %
    05:00Практически безоблачно+13°C92 %746 мм2.9 м/с2 %
    08:00Ясно и безоблачно+18°C76 %746 мм2.5 м/с1 %
    11:00Небольшая облачность+23°C57 %747 мм3.4 м/с14 %
    14:00Облачно с прояснениями+24°C51 %746 мм2.8 м/с28 %
    17:00Небольшая облачность+25°C44 %745 мм2.8 м/с43 %
    20:00Облачно с прояснениями, ливень+20°C78 %746 мм1.1 м/с43 %
    23:00Ясно и безоблачно+15°C92 %746 мм1.5 м/с8 %
  • 26мая
    Воскресенье
    +12°
    +26°
    Практически безоблачно
    ВремяПогодаТемператураВлажностьДавлениеВетер, м/сВероятность осадков
    02:00Небольшая облачность+13°C94 %746 мм1.7 м/с2 %
    05:00Ясно и безоблачно+12°C98 %746 мм1.7 м/с2 %
    08:00Ясно и безоблачно+19°C73 %747 мм1.0 м/с2 %
    11:00Практически безоблачно+24°C50 %747 мм2.3 м/с6 %
    14:00Практически безоблачно+25°C39 %747 мм2.7 м/с26 %
    17:00Практически безоблачно+24°C45 %747 мм3.3 м/с41 %
    20:00Практически безоблачно+21°C62 %747 мм1.6 м/с23 %
    23:00Небольшая облачность+16°C74 %747 мм2.1 м/с5 %
  • 27мая
    Понедельник
    +12°
    +26°
    Ясно и безоблачно
    ВремяПогодаТемператураВлажностьДавлениеВетер, м/сВероятность осадков
    02:00Практически безоблачно+15°C81 %747 мм2.1 м/с2 %
    05:00Ясно и безоблачно+13°C85 %747 мм2.3 м/с2 %
    08:00Ясно и безоблачно+18°C62 %748 мм2.2 м/с2 %
    11:00Ясно и безоблачно+25°C36 %748 мм2.6 м/с4 %
    14:00Ясно и безоблачно+25°C25 %747 мм4.0 м/с9 %
    17:00Ясно и безоблачно+25°C24 %746 мм4.2 м/с8 %
    20:00Ясно и безоблачно+22°C39 %746 мм2.1 м/с5 %
    23:00Ясно и безоблачно+17°C45 %746 мм3.5 м/с2 %
  • 28мая
    Вторник
    +12°
    +26°
    Небольшая облачность
    ВремяПогодаТемператураВлажностьДавлениеВетер, м/сВероятность осадков
    02:00Ясно и безоблачно+14°C49 %746 мм2.7 м/с2 %
    05:00Ясно и безоблачно+12°C58 %746 мм3.0 м/с2 %
    08:00Ясно и безоблачно+19°C50 %746 мм3.2 м/с2 %
    11:00Небольшая облачность+25°C27 %746 мм5.1 м/с2 %
    14:00Небольшая облачность+25°C26 %746 мм5.3 м/с2 %
    17:00Облачно с прояснениями+25°C26 %745 мм4.6 м/с5 %
    20:00Ясно и безоблачно+21°C55 %744 мм2.3 м/с4 %
    23:00Ясно и безоблачно+18°C49 %745 мм1.1 м/с2 %
Мы используем cookies
Соглашаюсь